createdAt,value
2023-05-08T00:01:49.248Z,83.53
2023-05-08T00:11:49.150Z,83.58
2023-05-08T00:21:49.285Z,83.68
2023-05-08T00:31:49.292Z,83.68
2023-05-08T00:41:49.218Z,83.73
2023-05-08T00:51:49.187Z,83.71
2023-05-08T01:01:49.296Z,83.76
2023-05-08T01:11:49.264Z,83.86
2023-05-08T01:21:49.855Z,83.96
2023-05-08T01:31:50.413Z,84.01
2023-05-08T01:41:50.278Z,84.08
2023-05-08T01:51:50.441Z,84.14
2023-05-08T02:01:50.373Z,84.20
2023-05-08T02:11:51.604Z,84.23
2023-05-08T02:21:51.383Z,84.29
2023-05-08T02:31:51.492Z,84.33
2023-05-08T02:41:51.537Z,84.36
2023-05-08T02:51:52.326Z,84.39
2023-05-08T03:01:52.803Z,84.36
2023-05-08T03:11:53.680Z,84.40
2023-05-08T03:21:53.654Z,84.47
2023-05-08T03:31:53.632Z,84.54
2023-05-08T03:41:53.602Z,84.59
2023-05-08T03:51:53.559Z,84.57
2023-05-08T04:01:53.800Z,84.64
2023-05-08T04:11:54.918Z,84.67
2023-05-08T04:21:55.936Z,84.62
2023-05-08T04:31:56.857Z,84.67
2023-05-08T04:41:59.608Z,84.65
2023-05-08T04:51:59.854Z,84.71
2023-05-08T05:02:02.777Z,84.38
2023-05-08T05:12:04.028Z,83.91
2023-05-08T05:22:06.204Z,83.59
2023-05-08T05:32:09.043Z,83.16
2023-05-08T05:42:09.830Z,83.06
2023-05-08T05:52:10.002Z,82.65
2023-05-08T06:02:12.678Z,82.30
2023-05-08T06:12:13.018Z,81.94
2023-05-08T06:22:13.674Z,81.85
2023-05-08T06:32:13.669Z,81.44
2023-05-08T06:42:13.723Z,81.04
2023-05-08T06:52:13.703Z,79.94
2023-05-08T07:02:15.599Z,78.79
2023-05-08T07:12:16.384Z,77.82
2023-05-08T07:22:16.788Z,77.47
2023-05-08T07:32:17.198Z,75.99
2023-05-08T07:42:18.190Z,75.66
2023-05-08T07:52:18.786Z,75.18
2023-05-08T08:02:18.790Z,75.06
2023-05-08T08:12:20.193Z,74.52
2023-05-08T08:22:20.810Z,73.24
2023-05-08T08:32:21.043Z,71.63
2023-05-08T08:42:21.236Z,70.19
2023-05-08T08:52:20.891Z,66.71
2023-05-08T09:02:21.108Z,65.29
2023-05-08T09:12:21.970Z,63.39
2023-05-08T09:22:23.387Z,60.97
2023-05-08T09:32:23.998Z,58.71
2023-05-08T09:42:24.910Z,56.80
2023-05-08T09:52:24.990Z,57.81
2023-05-08T10:02:25.888Z,57.90
2023-05-08T10:12:26.095Z,57.01
2023-05-08T10:22:26.090Z,56.42
2023-05-08T10:32:26.614Z,54.69
2023-05-08T10:42:27.066Z,52.14
2023-05-08T10:52:28.569Z,50.89
2023-05-08T11:02:29.629Z,51.10
2023-05-08T11:12:31.177Z,51.12
2023-05-08T11:22:32.313Z,51.51
2023-05-08T11:32:32.240Z,51.15
2023-05-08T11:42:32.141Z,50.62
2023-05-08T11:52:32.247Z,49.70
2023-05-08T12:02:33.977Z,49.05
2023-05-08T12:12:34.384Z,49.69
2023-05-08T12:22:34.277Z,49.23
2023-05-08T12:32:34.285Z,50.09
2023-05-08T12:42:34.315Z,51.08
2023-05-08T12:52:34.311Z,52.40
2023-05-08T13:02:39.338Z,53.90
2023-05-08T13:12:37.345Z,56.02
2023-05-08T13:22:37.297Z,58.02
2023-05-08T13:32:37.471Z,59.42
2023-05-08T13:42:37.326Z,60.87
2023-05-08T13:52:37.351Z,62.06
2023-05-08T14:02:37.835Z,62.87
2023-05-08T14:12:39.282Z,63.46
2023-05-08T14:22:39.773Z,63.64
2023-05-08T14:32:41.159Z,63.47
2023-05-08T14:42:41.403Z,63.55
2023-05-08T14:52:41.501Z,63.22
2023-05-08T15:02:41.570Z,62.98
2023-05-08T15:12:41.481Z,62.01
2023-05-08T15:22:41.476Z,61.53
2023-05-08T15:32:42.907Z,60.80
2023-05-08T15:42:43.576Z,60.77
2023-05-08T15:52:43.581Z,60.94
2023-05-08T16:02:43.712Z,61.36
2023-05-08T16:12:43.616Z,62.18
2023-05-08T16:22:43.643Z,62.83
2023-05-08T16:32:45.163Z,63.44
2023-05-08T16:42:45.760Z,64.06
2023-05-08T16:52:45.637Z,64.60
2023-05-08T17:02:45.699Z,65.30
2023-05-08T17:12:45.689Z,65.99
2023-05-08T17:22:45.672Z,66.28
2023-05-08T17:32:46.270Z,66.47
2023-05-08T17:42:46.713Z,66.79
2023-05-08T17:52:46.780Z,67.09
2023-05-08T18:02:46.789Z,67.47
2023-05-08T18:12:46.718Z,67.90
2023-05-08T18:22:46.753Z,68.37
2023-05-08T18:32:46.813Z,68.90
2023-05-08T18:42:46.737Z,69.46
2023-05-08T18:52:46.809Z,69.97
2023-05-08T19:02:46.892Z,70.59
2023-05-08T19:12:46.871Z,71.25
2023-05-08T19:22:48.091Z,71.72
2023-05-08T19:32:48.019Z,72.14
2023-05-08T19:42:47.858Z,72.57
2023-05-08T19:52:48.270Z,73.01
2023-05-08T20:02:48.981Z,73.49
2023-05-08T20:12:48.925Z,73.82
2023-05-08T20:22:48.959Z,74.04
2023-05-08T20:32:49.107Z,74.21
2023-05-08T20:42:49.019Z,74.36
2023-05-08T20:52:49.379Z,74.62
2023-05-08T21:02:50.018Z,74.80
2023-05-08T21:12:50.229Z,75.02
2023-05-08T21:22:50.058Z,75.25
2023-05-08T21:32:50.456Z,75.53
2023-05-08T21:42:51.037Z,75.69
2023-05-08T21:52:52.792Z,75.94
2023-05-08T22:02:53.141Z,76.20
2023-05-08T22:12:53.081Z,76.41
2023-05-08T22:22:53.107Z,76.68
2023-05-08T22:32:53.232Z,76.83
2023-05-08T22:42:55.191Z,77.10
2023-05-08T22:52:55.562Z,77.28
2023-05-08T23:02:56.338Z,77.56
2023-05-08T23:12:56.201Z,77.76
2023-05-08T23:22:56.143Z,77.95
2023-05-08T23:32:56.190Z,78.19
2023-05-08T23:42:56.211Z,78.21
2023-05-08T23:52:56.188Z,78.40
